sensor_id;sensor_type;location;lat;lon;timestamp;P1;durP1;ratioP1;P2;durP2;ratioP2
16512;SDS011;8369;48.030;11.598;2022-11-14T00:01:06;53.77;;;6.40;;
16512;SDS011;8369;48.030;11.598;2022-11-14T00:03:33;16.43;;;4.70;;
16512;SDS011;8369;48.030;11.598;2022-11-14T00:06:03;12.07;;;5.60;;
16512;SDS011;8369;48.030;11.598;2022-11-14T00:08:30;6.57;;;5.00;;
16512;SDS011;8369;48.030;11.598;2022-11-14T00:10:56;16.60;;;4.87;;
16512;SDS011;8369;48.030;11.598;2022-11-14T00:13:22;27.37;;;4.97;;
16512;SDS011;8369;48.030;11.598;2022-11-14T00:15:48;137.63;;;7.77;;
16512;SDS011;8369;48.030;11.598;2022-11-14T00:18:18;27.93;;;4.97;;
16512;SDS011;8369;48.030;11.598;2022-11-14T00:20:48;28.33;;;4.97;;
16512;SDS011;8369;48.030;11.598;2022-11-14T00:23:15;22.60;;;5.00;;
16512;SDS011;8369;48.030;11.598;2022-11-14T00:25:42;34.23;;;4.87;;
16512;SDS011;8369;48.030;11.598;2022-11-14T00:28:08;42.13;;;5.63;;
16512;SDS011;8369;48.030;11.598;2022-11-14T00:30:34;73.17;;;6.73;;
16512;SDS011;8369;48.030;11.598;2022-11-14T00:32:59;15.53;;;4.43;;
16512;SDS011;8369;48.030;11.598;2022-11-14T00:35:25;139.23;;;6.57;;
16512;SDS011;8369;48.030;11.598;2022-11-14T00:37:51;5.47;;;4.43;;
16512;SDS011;8369;48.030;11.598;2022-11-14T00:40:17;72.23;;;5.50;;
16512;SDS011;8369;48.030;11.598;2022-11-14T00:42:43;81.50;;;7.17;;
16512;SDS011;8369;48.030;11.598;2022-11-14T00:45:09;118.27;;;7.60;;
16512;SDS011;8369;48.030;11.598;2022-11-14T00:47:35;62.90;;;6.77;;
16512;SDS011;8369;48.030;11.598;2022-11-14T00:50:01;76.30;;;5.50;;
16512;SDS011;8369;48.030;11.598;2022-11-14T00:52:28;28.60;;;5.87;;
16512;SDS011;8369;48.030;11.598;2022-11-14T00:54:54;15.33;;;5.23;;
16512;SDS011;8369;48.030;11.598;2022-11-14T00:57:19;50.83;;;5.47;;
16512;SDS011;8369;48.030;11.598;2022-11-14T00:59:45;48.10;;;5.47;;
16512;SDS011;8369;48.030;11.598;2022-11-14T01:02:11;99.30;;;7.23;;
16512;SDS011;8369;48.030;11.598;2022-11-14T01:04:37;72.00;;;5.40;;
16512;SDS011;8369;48.030;11.598;2022-11-14T01:07:03;60.97;;;5.53;;
16512;SDS011;8369;48.030;11.598;2022-11-14T01:09:28;14.87;;;4.57;;
16512;SDS011;8369;48.030;11.598;2022-11-14T01:11:54;4.33;;;3.50;;
16512;SDS011;8369;48.030;11.598;2022-11-14T01:14:20;81.53;;;5.40;;
16512;SDS011;8369;48.030;11.598;2022-11-14T01:16:46;138.73;;;7.47;;
16512;SDS011;8369;48.030;11.598;2022-11-14T01:19:11;54.97;;;4.93;;
16512;SDS011;8369;48.030;11.598;2022-11-14T01:21:37;118.13;;;6.67;;
16512;SDS011;8369;48.030;11.598;2022-11-14T01:24:03;65.83;;;5.60;;
16512;SDS011;8369;48.030;11.598;2022-11-14T01:26:29;77.77;;;6.10;;
16512;SDS011;8369;48.030;11.598;2022-11-14T01:28:55;53.27;;;4.30;;
16512;SDS011;8369;48.030;11.598;2022-11-14T01:31:22;15.07;;;3.67;;
16512;SDS011;8369;48.030;11.598;2022-11-14T01:33:50;14.90;;;4.03;;
16512;SDS011;8369;48.030;11.598;2022-11-14T01:36:17;41.33;;;4.53;;
16512;SDS011;8369;48.030;11.598;2022-11-14T01:38:43;18.80;;;3.67;;
16512;SDS011;8369;48.030;11.598;2022-11-14T01:41:13;62.03;;;5.27;;
16512;SDS011;8369;48.030;11.598;2022-11-14T01:43:40;3.77;;;3.37;;
16512;SDS011;8369;48.030;11.598;2022-11-14T01:53:42;3.73;;;2.73;;
16512;SDS011;8369;48.030;11.598;2022-11-14T01:56:10;24.83;;;3.47;;
16512;SDS011;8369;48.030;11.598;2022-11-14T01:58:41;3.30;;;2.90;;
16512;SDS011;8369;48.030;11.598;2022-11-14T02:01:10;18.13;;;3.30;;
16512;SDS011;8369;48.030;11.598;2022-11-14T02:03:38;9.60;;;2.93;;
16512;SDS011;8369;48.030;11.598;2022-11-14T02:06:06;3.57;;;2.87;;
16512;SDS011;8369;48.030;11.598;2022-11-14T02:08:34;4.07;;;3.40;;
16512;SDS011;8369;48.030;11.598;2022-11-14T02:11:01;3.80;;;3.17;;
16512;SDS011;8369;48.030;11.598;2022-11-14T02:13:27;3.77;;;3.07;;
16512;SDS011;8369;48.030;11.598;2022-11-14T02:15:53;3.80;;;3.30;;
16512;SDS011;8369;48.030;11.598;2022-11-14T02:18:19;3.97;;;3.47;;
16512;SDS011;8369;48.030;11.598;2022-11-14T02:20:45;3.63;;;3.30;;
16512;SDS011;8369;48.030;11.598;2022-11-14T02:23:12;3.90;;;3.10;;
16512;SDS011;8369;48.030;11.598;2022-11-14T02:25:39;4.10;;;3.50;;
16512;SDS011;8369;48.030;11.598;2022-11-14T02:28:06;4.33;;;3.83;;
16512;SDS011;8369;48.030;11.598;2022-11-14T02:30:33;5.13;;;4.33;;
16512;SDS011;8369;48.030;11.598;2022-11-14T02:32:59;6.00;;;4.80;;
16512;SDS011;8369;48.030;11.598;2022-11-14T02:35:25;4.57;;;4.00;;
16512;SDS011;8369;48.030;11.598;2022-11-14T02:37:51;5.37;;;4.03;;
16512;SDS011;8369;48.030;11.598;2022-11-14T02:40:16;9.53;;;6.53;;
16512;SDS011;8369;48.030;11.598;2022-11-14T02:42:42;7.30;;;5.33;;
16512;SDS011;8369;48.030;11.598;2022-11-14T02:45:08;5.13;;;4.00;;
16512;SDS011;8369;48.030;11.598;2022-11-14T02:47:35;4.20;;;3.50;;
16512;SDS011;8369;48.030;11.598;2022-11-14T02:50:01;3.73;;;3.03;;
16512;SDS011;8369;48.030;11.598;2022-11-14T02:52:26;6.87;;;4.40;;
16512;SDS011;8369;48.030;11.598;2022-11-14T02:54:52;5.90;;;4.37;;
16512;SDS011;8369;48.030;11.598;2022-11-14T02:57:18;7.37;;;4.97;;
16512;SDS011;8369;48.030;11.598;2022-11-14T02:59:44;4.93;;;3.77;;
16512;SDS011;8369;48.030;11.598;2022-11-14T03:02:10;4.47;;;3.43;;
16512;SDS011;8369;48.030;11.598;2022-11-14T03:04:36;5.30;;;3.30;;
16512;SDS011;8369;48.030;11.598;2022-11-14T03:07:01;5.17;;;3.80;;
16512;SDS011;8369;48.030;11.598;2022-11-14T03:09:27;4.03;;;3.50;;
16512;SDS011;8369;48.030;11.598;2022-11-14T03:11:53;3.70;;;3.30;;
16512;SDS011;8369;48.030;11.598;2022-11-14T03:14:19;4.47;;;3.67;;
16512;SDS011;8369;48.030;11.598;2022-11-14T03:16:44;6.10;;;4.23;;
16512;SDS011;8369;48.030;11.598;2022-11-14T03:19:10;6.97;;;4.13;;
16512;SDS011;8369;48.030;11.598;2022-11-14T03:21:36;3.87;;;3.33;;
16512;SDS011;8369;48.030;11.598;2022-11-14T03:24:02;4.37;;;3.20;;
16512;SDS011;8369;48.030;11.598;2022-11-14T03:26:28;4.70;;;3.20;;
16512;SDS011;8369;48.030;11.598;2022-11-14T03:28:53;3.30;;;3.00;;
16512;SDS011;8369;48.030;11.598;2022-11-14T03:31:19;3.50;;;3.20;;
16512;SDS011;8369;48.030;11.598;2022-11-14T03:33:45;4.87;;;3.53;;
16512;SDS011;8369;48.030;11.598;2022-11-14T03:36:11;6.10;;;4.10;;
16512;SDS011;8369;48.030;11.598;2022-11-14T03:38:37;6.23;;;3.87;;
16512;SDS011;8369;48.030;11.598;2022-11-14T03:41:03;3.97;;;3.30;;
16512;SDS011;8369;48.030;11.598;2022-11-14T03:43:29;3.57;;;2.90;;
16512;SDS011;8369;48.030;11.598;2022-11-14T03:45:57;4.00;;;3.10;;
16512;SDS011;8369;48.030;11.598;2022-11-14T03:48:24;2.97;;;2.67;;
16512;SDS011;8369;48.030;11.598;2022-11-14T03:50:51;3.60;;;3.20;;
16512;SDS011;8369;48.030;11.598;2022-11-14T03:53:16;3.77;;;3.17;;
16512;SDS011;8369;48.030;11.598;2022-11-14T03:55:42;3.43;;;3.10;;
16512;SDS011;8369;48.030;11.598;2022-11-14T03:58:08;4.33;;;3.33;;
16512;SDS011;8369;48.030;11.598;2022-11-14T04:00:34;4.43;;;4.03;;
16512;SDS011;8369;48.030;11.598;2022-11-14T04:03:00;5.07;;;3.97;;
16512;SDS011;8369;48.030;11.598;2022-11-14T04:05:26;8.53;;;4.13;;
16512;SDS011;8369;48.030;11.598;2022-11-14T04:07:51;5.53;;;4.07;;
16512;SDS011;8369;48.030;11.598;2022-11-14T04:10:17;4.90;;;3.90;;
16512;SDS011;8369;48.030;11.598;2022-11-14T04:12:50;4.63;;;3.70;;
16512;SDS011;8369;48.030;11.598;2022-11-14T04:15:18;3.00;;;2.70;;
16512;SDS011;8369;48.030;11.598;2022-11-14T04:17:44;3.80;;;3.07;;
16512;SDS011;8369;48.030;11.598;2022-11-14T04:20:11;3.00;;;2.67;;
16512;SDS011;8369;48.030;11.598;2022-11-14T04:22:38;3.77;;;2.67;;
16512;SDS011;8369;48.030;11.598;2022-11-14T04:25:04;3.77;;;3.10;;
16512;SDS011;8369;48.030;11.598;2022-11-14T04:27:31;3.13;;;2.80;;
16512;SDS011;8369;48.030;11.598;2022-11-14T04:29:57;3.10;;;2.77;;
16512;SDS011;8369;48.030;11.598;2022-11-14T04:32:23;3.63;;;2.93;;
16512;SDS011;8369;48.030;11.598;2022-11-14T04:34:48;3.47;;;2.60;;
16512;SDS011;8369;48.030;11.598;2022-11-14T04:37:14;3.80;;;3.00;;
16512;SDS011;8369;48.030;11.598;2022-11-14T04:39:40;3.47;;;3.03;;
16512;SDS011;8369;48.030;11.598;2022-11-14T04:42:06;3.53;;;3.00;;
16512;SDS011;8369;48.030;11.598;2022-11-14T04:44:32;3.30;;;2.57;;
16512;SDS011;8369;48.030;11.598;2022-11-14T04:46:57;2.97;;;2.67;;
16512;SDS011;8369;48.030;11.598;2022-11-14T04:49:23;3.57;;;2.57;;
16512;SDS011;8369;48.030;11.598;2022-11-14T04:51:49;3.27;;;2.97;;
16512;SDS011;8369;48.030;11.598;2022-11-14T04:54:15;3.07;;;2.77;;
16512;SDS011;8369;48.030;11.598;2022-11-14T04:56:41;3.80;;;3.07;;
16512;SDS011;8369;48.030;11.598;2022-11-14T04:59:06;3.60;;;3.10;;
16512;SDS011;8369;48.030;11.598;2022-11-14T05:01:32;3.63;;;2.97;;
16512;SDS011;8369;48.030;11.598;2022-11-14T05:03:58;3.37;;;3.07;;
16512;SDS011;8369;48.030;11.598;2022-11-14T05:06:24;3.67;;;3.07;;
16512;SDS011;8369;48.030;11.598;2022-11-14T05:08:50;3.80;;;3.30;;
16512;SDS011;8369;48.030;11.598;2022-11-14T05:11:16;4.43;;;3.70;;
16512;SDS011;8369;48.030;11.598;2022-11-14T05:13:43;5.53;;;3.20;;
16512;SDS011;8369;48.030;11.598;2022-11-14T05:16:09;8.10;;;4.03;;
16512;SDS011;8369;48.030;11.598;2022-11-14T05:18:36;9.60;;;4.50;;
16512;SDS011;8369;48.030;11.598;2022-11-14T05:21:03;11.67;;;4.73;;
16512;SDS011;8369;48.030;11.598;2022-11-14T05:23:29;8.77;;;4.37;;
16512;SDS011;8369;48.030;11.598;2022-11-14T05:26:01;5.10;;;3.20;;
16512;SDS011;8369;48.030;11.598;2022-11-14T05:28:30;9.30;;;3.20;;
16512;SDS011;8369;48.030;11.598;2022-11-14T05:31:01;4.27;;;3.10;;
16512;SDS011;8369;48.030;11.598;2022-11-14T05:33:36;6.03;;;4.20;;
16512;SDS011;8369;48.030;11.598;2022-11-14T05:36:06;5.37;;;3.67;;
16512;SDS011;8369;48.030;11.598;2022-11-14T05:38:33;4.83;;;3.50;;
16512;SDS011;8369;48.030;11.598;2022-11-14T05:41:03;7.57;;;3.40;;
16512;SDS011;8369;48.030;11.598;2022-11-14T05:43:30;6.33;;;3.33;;
16512;SDS011;8369;48.030;11.598;2022-11-14T05:45:59;5.17;;;3.47;;
16512;SDS011;8369;48.030;11.598;2022-11-14T05:48:30;7.57;;;4.90;;
16512;SDS011;8369;48.030;11.598;2022-11-14T05:50:57;6.87;;;4.40;;
16512;SDS011;8369;48.030;11.598;2022-11-14T05:53:24;5.83;;;4.30;;
16512;SDS011;8369;48.030;11.598;2022-11-14T05:55:52;6.63;;;4.30;;
16512;SDS011;8369;48.030;11.598;2022-11-14T05:58:18;4.37;;;3.53;;
16512;SDS011;8369;48.030;11.598;2022-11-14T06:00:44;3.83;;;2.97;;
16512;SDS011;8369;48.030;11.598;2022-11-14T06:03:10;3.63;;;2.90;;
16512;SDS011;8369;48.030;11.598;2022-11-14T06:05:36;4.50;;;3.20;;
16512;SDS011;8369;48.030;11.598;2022-11-14T06:08:01;4.77;;;3.50;;
16512;SDS011;8369;48.030;11.598;2022-11-14T06:10:28;2.77;;;2.40;;
16512;SDS011;8369;48.030;11.598;2022-11-14T06:12:54;3.37;;;2.80;;
16512;SDS011;8369;48.030;11.598;2022-11-14T06:15:20;3.70;;;3.10;;
16512;SDS011;8369;48.030;11.598;2022-11-14T06:17:45;8.47;;;3.20;;
16512;SDS011;8369;48.030;11.598;2022-11-14T06:20:11;3.27;;;2.80;;
16512;SDS011;8369;48.030;11.598;2022-11-14T06:22:38;6.17;;;3.03;;
16512;SDS011;8369;48.030;11.598;2022-11-14T06:25:04;4.33;;;3.07;;
16512;SDS011;8369;48.030;11.598;2022-11-14T06:27:30;3.73;;;2.90;;
16512;SDS011;8369;48.030;11.598;2022-11-14T06:29:56;5.63;;;3.10;;
16512;SDS011;8369;48.030;11.598;2022-11-14T06:32:22;3.93;;;3.10;;
16512;SDS011;8369;48.030;11.598;2022-11-14T06:34:48;5.00;;;3.53;;
16512;SDS011;8369;48.030;11.598;2022-11-14T06:37:14;4.10;;;3.33;;
16512;SDS011;8369;48.030;11.598;2022-11-14T06:39:40;5.67;;;3.50;;
16512;SDS011;8369;48.030;11.598;2022-11-14T06:42:05;4.47;;;3.30;;
16512;SDS011;8369;48.030;11.598;2022-11-14T06:44:31;6.20;;;3.50;;
16512;SDS011;8369;48.030;11.598;2022-11-14T06:46:57;4.33;;;3.30;;
16512;SDS011;8369;48.030;11.598;2022-11-14T06:49:23;6.30;;;3.97;;
16512;SDS011;8369;48.030;11.598;2022-11-14T06:51:49;4.97;;;3.67;;
16512;SDS011;8369;48.030;11.598;2022-11-14T06:54:15;7.87;;;3.73;;
16512;SDS011;8369;48.030;11.598;2022-11-14T06:56:41;6.17;;;4.00;;
16512;SDS011;8369;48.030;11.598;2022-11-14T06:59:07;8.03;;;3.90;;
16512;SDS011;8369;48.030;11.598;2022-11-14T07:01:33;4.07;;;3.60;;
16512;SDS011;8369;48.030;11.598;2022-11-14T07:03:59;5.80;;;4.00;;
16512;SDS011;8369;48.030;11.598;2022-11-14T07:06:27;10.23;;;5.50;;
16512;SDS011;8369;48.030;11.598;2022-11-14T07:08:54;10.33;;;6.87;;
16512;SDS011;8369;48.030;11.598;2022-11-14T07:11:21;12.23;;;5.97;;
16512;SDS011;8369;48.030;11.598;2022-11-14T07:13:51;10.40;;;6.23;;
16512;SDS011;8369;48.030;11.598;2022-11-14T07:16:18;7.00;;;5.40;;
16512;SDS011;8369;48.030;11.598;2022-11-14T07:18:47;8.37;;;5.23;;
16512;SDS011;8369;48.030;11.598;2022-11-14T07:21:13;5.17;;;3.20;;
16512;SDS011;8369;48.030;11.598;2022-11-14T07:23:39;6.33;;;3.23;;
16512;SDS011;8369;48.030;11.598;2022-11-14T07:26:06;3.03;;;2.53;;
16512;SDS011;8369;48.030;11.598;2022-11-14T07:28:37;3.03;;;2.40;;
16512;SDS011;8369;48.030;11.598;2022-11-14T07:31:05;3.63;;;2.53;;
16512;SDS011;8369;48.030;11.598;2022-11-14T07:33:33;3.47;;;2.73;;
16512;SDS011;8369;48.030;11.598;2022-11-14T07:35:59;3.33;;;2.47;;
16512;SDS011;8369;48.030;11.598;2022-11-14T07:38:25;4.63;;;3.03;;
16512;SDS011;8369;48.030;11.598;2022-11-14T07:43:21;5.50;;;2.80;;
16512;SDS011;8369;48.030;11.598;2022-11-14T07:45:47;3.50;;;2.60;;
16512;SDS011;8369;48.030;11.598;2022-11-14T07:48:13;4.37;;;2.37;;
16512;SDS011;8369;48.030;11.598;2022-11-14T07:50:40;3.43;;;2.50;;
16512;SDS011;8369;48.030;11.598;2022-11-14T07:53:07;3.10;;;2.80;;
16512;SDS011;8369;48.030;11.598;2022-11-14T07:55:36;4.07;;;2.40;;
16512;SDS011;8369;48.030;11.598;2022-11-14T07:58:03;8.17;;;3.40;;
16512;SDS011;8369;48.030;11.598;2022-11-14T08:00:29;4.17;;;3.10;;
16512;SDS011;8369;48.030;11.598;2022-11-14T08:02:55;6.13;;;3.60;;
16512;SDS011;8369;48.030;11.598;2022-11-14T08:05:21;5.17;;;3.40;;
16512;SDS011;8369;48.030;11.598;2022-11-14T08:07:50;4.43;;;2.60;;
16512;SDS011;8369;48.030;11.598;2022-11-14T08:10:16;7.13;;;3.60;;
16512;SDS011;8369;48.030;11.598;2022-11-14T08:12:43;5.53;;;2.77;;
16512;SDS011;8369;48.030;11.598;2022-11-14T08:15:11;5.57;;;2.50;;
16512;SDS011;8369;48.030;11.598;2022-11-14T08:17:38;3.40;;;2.60;;
16512;SDS011;8369;48.030;11.598;2022-11-14T08:20:04;3.00;;;2.40;;
16512;SDS011;8369;48.030;11.598;2022-11-14T08:22:32;6.43;;;2.80;;
16512;SDS011;8369;48.030;11.598;2022-11-14T08:24:58;3.60;;;2.73;;
16512;SDS011;8369;48.030;11.598;2022-11-14T08:27:24;4.17;;;2.80;;
16512;SDS011;8369;48.030;11.598;2022-11-14T08:29:50;6.60;;;3.07;;
16512;SDS011;8369;48.030;11.598;2022-11-14T08:32:16;3.63;;;3.10;;
16512;SDS011;8369;48.030;11.598;2022-11-14T08:34:43;4.10;;;3.00;;
16512;SDS011;8369;48.030;11.598;2022-11-14T08:37:09;4.53;;;3.00;;
16512;SDS011;8369;48.030;11.598;2022-11-14T08:39:34;4.67;;;2.70;;
16512;SDS011;8369;48.030;11.598;2022-11-14T08:42:00;3.37;;;2.57;;
16512;SDS011;8369;48.030;11.598;2022-11-14T08:44:26;3.47;;;2.47;;
16512;SDS011;8369;48.030;11.598;2022-11-14T08:46:52;4.53;;;2.77;;
16512;SDS011;8369;48.030;11.598;2022-11-14T08:49:18;5.07;;;2.80;;
16512;SDS011;8369;48.030;11.598;2022-11-14T08:51:44;2.80;;;2.20;;
16512;SDS011;8369;48.030;11.598;2022-11-14T08:54:10;2.37;;;1.97;;
16512;SDS011;8369;48.030;11.598;2022-11-14T08:56:35;2.83;;;2.50;;
16512;SDS011;8369;48.030;11.598;2022-11-14T08:59:02;4.30;;;2.60;;
16512;SDS011;8369;48.030;11.598;2022-11-14T09:01:28;4.60;;;2.70;;
16512;SDS011;8369;48.030;11.598;2022-11-14T09:03:54;2.63;;;2.20;;
16512;SDS011;8369;48.030;11.598;2022-11-14T09:06:20;3.10;;;2.37;;
16512;SDS011;8369;48.030;11.598;2022-11-14T09:08:46;3.50;;;2.43;;
16512;SDS011;8369;48.030;11.598;2022-11-14T09:11:13;3.30;;;2.20;;
16512;SDS011;8369;48.030;11.598;2022-11-14T09:13:38;3.90;;;3.13;;
16512;SDS011;8369;48.030;11.598;2022-11-14T09:16:04;5.13;;;2.93;;
16512;SDS011;8369;48.030;11.598;2022-11-14T09:18:30;5.30;;;3.10;;
16512;SDS011;8369;48.030;11.598;2022-11-14T09:21:00;5.20;;;3.50;;
16512;SDS011;8369;48.030;11.598;2022-11-14T09:23:30;4.03;;;2.60;;
16512;SDS011;8369;48.030;11.598;2022-11-14T09:25:56;5.60;;;3.10;;
16512;SDS011;8369;48.030;11.598;2022-11-14T09:28:22;7.27;;;3.43;;
16512;SDS011;8369;48.030;11.598;2022-11-14T09:30:49;7.23;;;3.60;;
16512;SDS011;8369;48.030;11.598;2022-11-14T09:33:14;7.20;;;3.60;;
16512;SDS011;8369;48.030;11.598;2022-11-14T09:35:40;6.13;;;3.23;;
16512;SDS011;8369;48.030;11.598;2022-11-14T09:38:08;5.27;;;3.50;;
16512;SDS011;8369;48.030;11.598;2022-11-14T09:40:44;5.50;;;3.90;;
16512;SDS011;8369;48.030;11.598;2022-11-14T09:45:59;7.70;;;3.60;;
16512;SDS011;8369;48.030;11.598;2022-11-14T09:48:26;16.97;;;3.70;;
16512;SDS011;8369;48.030;11.598;2022-11-14T09:53:36;7.77;;;4.00;;
16512;SDS011;8369;48.030;11.598;2022-11-14T09:56:11;4.60;;;3.33;;
16512;SDS011;8369;48.030;11.598;2022-11-14T09:58:42;5.93;;;4.07;;
16512;SDS011;8369;48.030;11.598;2022-11-14T10:01:22;5.77;;;3.63;;
16512;SDS011;8369;48.030;11.598;2022-11-14T10:04:03;4.10;;;3.33;;
16512;SDS011;8369;48.030;11.598;2022-11-14T10:06:55;5.43;;;3.50;;
16512;SDS011;8369;48.030;11.598;2022-11-14T10:12:26;3.93;;;3.37;;
16512;SDS011;8369;48.030;11.598;2022-11-14T10:15:12;4.03;;;3.20;;
16512;SDS011;8369;48.030;11.598;2022-11-14T10:20:23;4.00;;;3.10;;
16512;SDS011;8369;48.030;11.598;2022-11-14T10:39:15;2.67;;;2.30;;
16512;SDS011;8369;48.030;11.598;2022-11-14T10:41:43;3.27;;;2.70;;
16512;SDS011;8369;48.030;11.598;2022-11-14T10:44:11;4.13;;;2.60;;
16512;SDS011;8369;48.030;11.598;2022-11-14T10:46:44;3.20;;;2.50;;
16512;SDS011;8369;48.030;11.598;2022-11-14T10:49:16;4.07;;;2.40;;
16512;SDS011;8369;48.030;11.598;2022-11-14T10:51:54;3.60;;;2.60;;
16512;SDS011;8369;48.030;11.598;2022-11-14T10:54:30;2.60;;;2.23;;
16512;SDS011;8369;48.030;11.598;2022-11-14T10:57:17;2.97;;;2.60;;
16512;SDS011;8369;48.030;11.598;2022-11-14T10:59:44;6.13;;;2.50;;
16512;SDS011;8369;48.030;11.598;2022-11-14T11:02:11;3.00;;;2.50;;
16512;SDS011;8369;48.030;11.598;2022-11-14T11:04:38;4.37;;;2.97;;
16512;SDS011;8369;48.030;11.598;2022-11-14T11:09:32;4.97;;;2.30;;
16512;SDS011;8369;48.030;11.598;2022-11-14T11:15:12;4.20;;;2.63;;
16512;SDS011;8369;48.030;11.598;2022-11-14T11:20:30;3.50;;;2.67;;
16512;SDS011;8369;48.030;11.598;2022-11-14T11:25:36;3.57;;;2.60;;
16512;SDS011;8369;48.030;11.598;2022-11-14T11:28:16;3.13;;;2.60;;
16512;SDS011;8369;48.030;11.598;2022-11-14T11:30:55;4.67;;;3.10;;
16512;SDS011;8369;48.030;11.598;2022-11-14T11:33:26;3.23;;;2.67;;
16512;SDS011;8369;48.030;11.598;2022-11-14T11:36:09;3.37;;;2.90;;
16512;SDS011;8369;48.030;11.598;2022-11-14T11:38:39;4.60;;;3.17;;
16512;SDS011;8369;48.030;11.598;2022-11-14T11:41:16;4.07;;;2.80;;
16512;SDS011;8369;48.030;11.598;2022-11-14T11:43:53;3.97;;;3.43;;
16512;SDS011;8369;48.030;11.598;2022-11-14T11:46:33;6.90;;;2.90;;
16512;SDS011;8369;48.030;11.598;2022-11-14T11:49:50;3.30;;;2.90;;
16512;SDS011;8369;48.030;11.598;2022-11-14T11:52:10;3.63;;;2.50;;
16512;SDS011;8369;48.030;11.598;2022-11-14T11:57:38;6.60;;;4.30;;
16512;SDS011;8369;48.030;11.598;2022-11-14T12:00:19;7.10;;;5.50;;
16512;SDS011;8369;48.030;11.598;2022-11-14T12:02:50;9.90;;;7.10;;
16512;SDS011;8369;48.030;11.598;2022-11-14T12:08:26;9.20;;;7.30;;
16512;SDS011;8369;48.030;11.598;2022-11-14T12:10:57;6.20;;;5.53;;
16512;SDS011;8369;48.030;11.598;2022-11-14T12:16:51;5.67;;;4.27;;
16512;SDS011;8369;48.030;11.598;2022-11-14T12:27:22;3.83;;;3.13;;
16512;SDS011;8369;48.030;11.598;2022-11-14T12:32:55;3.80;;;3.07;;
16512;SDS011;8369;48.030;11.598;2022-11-14T12:35:47;3.77;;;2.70;;
16512;SDS011;8369;48.030;11.598;2022-11-14T12:38:24;4.30;;;3.43;;
16512;SDS011;8369;48.030;11.598;2022-11-14T12:40:54;4.27;;;2.90;;
16512;SDS011;8369;48.030;11.598;2022-11-14T12:43:27;4.10;;;3.10;;
16512;SDS011;8369;48.030;11.598;2022-11-14T12:46:00;3.33;;;2.80;;
16512;SDS011;8369;48.030;11.598;2022-11-14T12:48:36;2.87;;;2.53;;
16512;SDS011;8369;48.030;11.598;2022-11-14T12:53:51;3.80;;;2.70;;
16512;SDS011;8369;48.030;11.598;2022-11-14T13:09:32;3.43;;;2.57;;
16512;SDS011;8369;48.030;11.598;2022-11-14T13:15:24;3.77;;;2.67;;
16512;SDS011;8369;48.030;11.598;2022-11-14T13:21:01;3.80;;;2.70;;
16512;SDS011;8369;48.030;11.598;2022-11-14T13:23:57;4.43;;;2.40;;
16512;SDS011;8369;48.030;11.598;2022-11-14T13:28:49;3.47;;;2.60;;
16512;SDS011;8369;48.030;11.598;2022-11-14T13:31:20;3.77;;;3.07;;
16512;SDS011;8369;48.030;11.598;2022-11-14T13:33:49;6.53;;;3.03;;
16512;SDS011;8369;48.030;11.598;2022-11-14T13:42:17;3.90;;;3.20;;
16512;SDS011;8369;48.030;11.598;2022-11-14T13:44:45;7.37;;;3.90;;
16512;SDS011;8369;48.030;11.598;2022-11-14T13:48:05;7.83;;;4.27;;
16512;SDS011;8369;48.030;11.598;2022-11-14T13:50:14;3.80;;;3.07;;
16512;SDS011;8369;48.030;11.598;2022-11-14T13:52:44;6.57;;;4.07;;
16512;SDS011;8369;48.030;11.598;2022-11-14T13:55:21;5.93;;;3.93;;
16512;SDS011;8369;48.030;11.598;2022-11-14T14:01:03;4.43;;;3.60;;
16512;SDS011;8369;48.030;11.598;2022-11-14T14:03:42;4.50;;;3.70;;
16512;SDS011;8369;48.030;11.598;2022-11-14T14:06:31;5.17;;;3.43;;
16512;SDS011;8369;48.030;11.598;2022-11-14T14:17:16;6.10;;;4.00;;
16512;SDS011;8369;48.030;11.598;2022-11-14T14:33:46;6.23;;;4.10;;
16512;SDS011;8369;48.030;11.598;2022-11-14T14:36:16;10.37;;;4.60;;
16512;SDS011;8369;48.030;11.598;2022-11-14T14:38:45;5.70;;;4.20;;
16512;SDS011;8369;48.030;11.598;2022-11-14T14:41:11;7.37;;;4.00;;
16512;SDS011;8369;48.030;11.598;2022-11-14T14:43:40;6.53;;;4.40;;
16512;SDS011;8369;48.030;11.598;2022-11-14T14:46:08;7.33;;;4.80;;
16512;SDS011;8369;48.030;11.598;2022-11-14T14:48:35;7.03;;;5.10;;
16512;SDS011;8369;48.030;11.598;2022-11-14T14:51:04;5.97;;;4.70;;
16512;SDS011;8369;48.030;11.598;2022-11-14T14:53:34;5.07;;;4.17;;
16512;SDS011;8369;48.030;11.598;2022-11-14T14:56:02;6.97;;;4.17;;
16512;SDS011;8369;48.030;11.598;2022-11-14T14:58:30;8.53;;;4.00;;
16512;SDS011;8369;48.030;11.598;2022-11-14T15:03:46;4.30;;;3.60;;
16512;SDS011;8369;48.030;11.598;2022-11-14T15:06:28;5.27;;;3.73;;
16512;SDS011;8369;48.030;11.598;2022-11-14T15:09:12;6.00;;;4.30;;
16512;SDS011;8369;48.030;11.598;2022-11-14T15:11:44;5.33;;;3.63;;
16512;SDS011;8369;48.030;11.598;2022-11-14T15:14:18;5.27;;;4.07;;
16512;SDS011;8369;48.030;11.598;2022-11-14T15:16:46;4.90;;;3.80;;
16512;SDS011;8369;48.030;11.598;2022-11-14T15:19:19;4.73;;;4.00;;
16512;SDS011;8369;48.030;11.598;2022-11-14T15:22:03;7.23;;;4.10;;
16512;SDS011;8369;48.030;11.598;2022-11-14T15:27:43;6.47;;;3.87;;
16512;SDS011;8369;48.030;11.598;2022-11-14T15:30:22;6.33;;;4.40;;
16512;SDS011;8369;48.030;11.598;2022-11-14T15:32:58;9.53;;;4.50;;
16512;SDS011;8369;48.030;11.598;2022-11-14T15:35:32;10.10;;;4.80;;
16512;SDS011;8369;48.030;11.598;2022-11-14T15:38:00;8.40;;;4.30;;
16512;SDS011;8369;48.030;11.598;2022-11-14T15:40:30;6.73;;;4.03;;
16512;SDS011;8369;48.030;11.598;2022-11-14T15:54:19;7.17;;;4.33;;
16512;SDS011;8369;48.030;11.598;2022-11-14T15:56:49;7.10;;;4.43;;
16512;SDS011;8369;48.030;11.598;2022-11-14T15:59:16;10.17;;;5.23;;
16512;SDS011;8369;48.030;11.598;2022-11-14T16:01:45;11.33;;;5.60;;
16512;SDS011;8369;48.030;11.598;2022-11-14T16:04:16;11.47;;;5.40;;
16512;SDS011;8369;48.030;11.598;2022-11-14T16:06:44;10.70;;;5.53;;
16512;SDS011;8369;48.030;11.598;2022-11-14T16:09:12;9.70;;;5.70;;
16512;SDS011;8369;48.030;11.598;2022-11-14T16:11:42;11.63;;;6.67;;
16512;SDS011;8369;48.030;11.598;2022-11-14T16:14:09;11.03;;;6.50;;
16512;SDS011;8369;48.030;11.598;2022-11-14T16:16:35;11.67;;;6.23;;
16512;SDS011;8369;48.030;11.598;2022-11-14T16:19:02;11.30;;;6.73;;
16512;SDS011;8369;48.030;11.598;2022-11-14T16:36:58;9.43;;;5.43;;
16512;SDS011;8369;48.030;11.598;2022-11-14T16:39:25;10.63;;;5.87;;
16512;SDS011;8369;48.030;11.598;2022-11-14T16:41:51;10.13;;;5.73;;
16512;SDS011;8369;48.030;11.598;2022-11-14T16:44:17;12.03;;;5.37;;
16512;SDS011;8369;48.030;11.598;2022-11-14T16:46:43;9.80;;;5.30;;
16512;SDS011;8369;48.030;11.598;2022-11-14T16:49:11;9.77;;;5.27;;
16512;SDS011;8369;48.030;11.598;2022-11-14T16:51:42;11.37;;;5.60;;
16512;SDS011;8369;48.030;11.598;2022-11-14T16:54:11;16.20;;;6.47;;
16512;SDS011;8369;48.030;11.598;2022-11-14T16:56:38;8.93;;;5.93;;
16512;SDS011;8369;48.030;11.598;2022-11-14T16:59:04;8.97;;;5.90;;
16512;SDS011;8369;48.030;11.598;2022-11-14T17:01:30;11.90;;;6.20;;
16512;SDS011;8369;48.030;11.598;2022-11-14T17:03:56;10.47;;;5.73;;
16512;SDS011;8369;48.030;11.598;2022-11-14T17:06:24;8.63;;;4.40;;
16512;SDS011;8369;48.030;11.598;2022-11-14T17:08:54;9.87;;;4.70;;
16512;SDS011;8369;48.030;11.598;2022-11-14T17:11:22;6.80;;;4.70;;
16512;SDS011;8369;48.030;11.598;2022-11-14T17:13:49;8.63;;;4.63;;
16512;SDS011;8369;48.030;11.598;2022-11-14T17:16:15;9.07;;;4.70;;
16512;SDS011;8369;48.030;11.598;2022-11-14T17:18:41;6.03;;;4.27;;
16512;SDS011;8369;48.030;11.598;2022-11-14T17:21:08;7.10;;;4.40;;
16512;SDS011;8369;48.030;11.598;2022-11-14T17:23:36;8.73;;;4.43;;
16512;SDS011;8369;48.030;11.598;2022-11-14T17:26:05;5.90;;;4.27;;
16512;SDS011;8369;48.030;11.598;2022-11-14T17:28:38;6.93;;;4.43;;
16512;SDS011;8369;48.030;11.598;2022-11-14T17:31:06;6.07;;;4.27;;